createdAt,value
2018-11-29T00:00:34.074Z,4.62
2018-11-29T00:03:01.790Z,4.75
2018-11-29T00:05:29.346Z,4.77
2018-11-29T00:07:56.923Z,4.72
2018-11-29T00:10:24.511Z,4.75
2018-11-29T00:12:52.181Z,4.65
2018-11-29T00:15:20.663Z,4.52
2018-11-29T00:17:48.342Z,4.39
2018-11-29T00:20:17.260Z,4.50
2018-11-29T00:22:45.163Z,4.39
2018-11-29T00:25:14.273Z,4.44
2018-11-29T00:27:42.124Z,4.50
2018-11-29T00:30:15.502Z,4.58
2018-11-29T00:32:43.182Z,4.62
2018-11-29T00:35:11.109Z,4.62
2018-11-29T00:37:38.702Z,4.60
2018-11-29T00:40:11.056Z,4.67
2018-11-29T00:42:38.729Z,4.64
2018-11-29T00:45:07.679Z,4.62
2018-11-29T00:47:35.413Z,4.58
2018-11-29T00:50:02.911Z,4.62
2018-11-29T00:52:30.475Z,4.68
2018-11-29T00:54:58.173Z,4.71
2018-11-29T00:57:25.749Z,4.65
2018-11-29T00:59:53.386Z,4.74
2018-11-29T01:02:21.082Z,4.82
2018-11-29T01:04:48.939Z,4.81
2018-11-29T01:07:16.596Z,4.84
2018-11-29T01:09:44.314Z,4.89
2018-11-29T01:12:11.932Z,4.75
2018-11-29T01:14:39.612Z,4.68
2018-11-29T01:17:07.266Z,4.59
2018-11-29T01:19:34.835Z,4.66
2018-11-29T01:22:02.488Z,4.68
2018-11-29T01:24:30.281Z,4.74
2018-11-29T01:26:57.847Z,4.73
2018-11-29T01:29:25.611Z,4.86
2018-11-29T01:31:53.209Z,4.77
2018-11-29T01:34:20.785Z,4.81
2018-11-29T01:36:48.349Z,4.91
2018-11-29T01:39:16.069Z,4.88
2018-11-29T01:41:43.659Z,4.93
2018-11-29T01:44:11.344Z,4.94
2018-11-29T01:46:39.215Z,4.84
2018-11-29T01:49:06.841Z,4.88
2018-11-29T01:51:34.413Z,4.80
2018-11-29T01:54:01.933Z,4.71
2018-11-29T01:56:29.536Z,4.68
2018-11-29T01:58:57.122Z,4.63
2018-11-29T02:01:24.841Z,4.54
2018-11-29T02:03:52.601Z,4.54
2018-11-29T02:06:20.189Z,4.49
2018-11-29T02:08:47.698Z,4.56
2018-11-29T02:11:15.293Z,4.53
2018-11-29T02:13:42.864Z,4.63
2018-11-29T02:16:10.408Z,4.55
2018-11-29T02:18:38.011Z,4.62
2018-11-29T02:21:06.266Z,4.53
2018-11-29T02:23:33.860Z,4.51
2018-11-29T02:26:01.390Z,4.36
2018-11-29T02:28:29.139Z,4.34
2018-11-29T02:30:56.833Z,4.26
2018-11-29T02:33:24.390Z,4.30
2018-11-29T02:35:51.956Z,4.28
2018-11-29T02:38:19.555Z,4.30
2018-11-29T02:40:47.115Z,4.30
2018-11-29T02:43:14.794Z,4.27
2018-11-29T02:45:42.327Z,4.30
2018-11-29T02:48:09.971Z,4.18
2018-11-29T02:50:37.617Z,4.23
2018-11-29T02:53:05.301Z,4.11
2018-11-29T02:55:32.985Z,4.13
2018-11-29T02:58:00.560Z,4.16
2018-11-29T03:00:28.102Z,4.18
2018-11-29T03:02:55.781Z,4.16
2018-11-29T03:05:23.419Z,4.06
2018-11-29T03:07:51.166Z,4.02
2018-11-29T03:10:28.063Z,4.05
2018-11-29T03:12:55.685Z,4.07
2018-11-29T03:15:23.273Z,4.00
2018-11-29T03:17:50.857Z,4.02
2018-11-29T03:20:18.436Z,4.06
2018-11-29T03:22:45.961Z,4.07
2018-11-29T03:25:14.130Z,4.11
2018-11-29T03:27:41.984Z,4.12
2018-11-29T03:30:11.219Z,4.11
2018-11-29T03:32:38.821Z,4.13
2018-11-29T03:35:06.508Z,4.09
2018-11-29T03:37:34.058Z,4.05
2018-11-29T03:40:01.812Z,4.09
2018-11-29T03:42:29.352Z,4.09
2018-11-29T03:44:57.002Z,4.13
2018-11-29T03:47:24.718Z,4.12
2018-11-29T03:49:52.246Z,4.10
2018-11-29T03:52:20.044Z,4.23
2018-11-29T03:54:47.594Z,4.16
2018-11-29T03:57:15.354Z,4.06
2018-11-29T04:02:16.858Z,4.14
2018-11-29T04:04:44.461Z,4.05
2018-11-29T04:07:12.125Z,4.08
2018-11-29T04:09:39.712Z,4.08
2018-11-29T04:12:07.244Z,4.02
2018-11-29T04:14:34.765Z,4.08
2018-11-29T04:17:02.580Z,4.03
2018-11-29T04:19:30.113Z,3.98
2018-11-29T04:21:57.775Z,3.89
2018-11-29T04:24:25.409Z,3.90
2018-11-29T04:26:52.978Z,3.92
2018-11-29T04:29:20.500Z,3.87
2018-11-29T04:31:48.080Z,3.90
2018-11-29T04:34:15.882Z,3.83
2018-11-29T04:36:43.790Z,3.82
2018-11-29T04:39:11.756Z,3.83
2018-11-29T04:41:39.272Z,3.80
2018-11-29T04:44:06.837Z,3.80
2018-11-29T04:46:51.900Z,3.80
2018-11-29T04:49:19.446Z,3.63
2018-11-29T04:51:47.030Z,3.60
2018-11-29T04:54:14.631Z,3.60
2018-11-29T04:56:42.251Z,3.67
2018-11-29T04:59:09.980Z,3.61
2018-11-29T05:01:37.897Z,3.59
2018-11-29T05:04:05.742Z,3.56
2018-11-29T05:06:33.415Z,3.52
2018-11-29T05:09:00.968Z,3.59
2018-11-29T05:11:28.547Z,3.61
2018-11-29T05:13:56.193Z,3.57
2018-11-29T05:16:23.705Z,3.52
2018-11-29T05:18:51.531Z,3.58
2018-11-29T05:21:19.052Z,3.61
2018-11-29T05:23:46.622Z,3.59
2018-11-29T05:26:14.175Z,3.58
2018-11-29T05:28:41.884Z,3.59
2018-11-29T05:31:09.510Z,3.58
2018-11-29T05:33:37.093Z,3.60
2018-11-29T05:36:04.833Z,3.60
2018-11-29T05:38:32.398Z,3.53
2018-11-29T05:41:00.001Z,3.60
2018-11-29T05:43:27.832Z,3.48
2018-11-29T05:45:55.392Z,3.43
2018-11-29T05:48:22.936Z,3.36
2018-11-29T05:50:50.624Z,3.41
2018-11-29T05:53:18.277Z,3.38
2018-11-29T05:55:45.822Z,3.33
2018-11-29T05:58:13.434Z,3.29
2018-11-29T06:00:41.241Z,3.31
2018-11-29T06:03:08.826Z,3.27
2018-11-29T06:05:36.486Z,3.17
2018-11-29T06:08:04.205Z,3.30
2018-11-29T06:10:31.813Z,3.36
2018-11-29T06:12:59.355Z,3.36
2018-11-29T06:15:26.949Z,3.41
2018-11-29T06:17:54.491Z,3.43
2018-11-29T06:20:22.281Z,3.40
2018-11-29T06:22:56.193Z,3.40
2018-11-29T06:25:24.129Z,3.35
2018-11-29T06:27:51.847Z,3.39
2018-11-29T06:30:20.882Z,3.41
2018-11-29T06:32:49.079Z,3.44
2018-11-29T06:35:16.708Z,3.50
2018-11-29T06:37:44.289Z,3.53
2018-11-29T06:40:12.415Z,3.54
2018-11-29T06:42:39.991Z,3.50
2018-11-29T06:45:09.626Z,3.36
2018-11-29T06:47:37.173Z,3.31
2018-11-29T06:50:05.828Z,3.36
2018-11-29T06:52:33.449Z,3.35
2018-11-29T06:55:01.104Z,3.39
2018-11-29T06:57:28.613Z,3.47
2018-11-29T06:59:56.397Z,3.52
2018-11-29T07:02:23.943Z,3.52
2018-11-29T07:04:51.508Z,3.53
2018-11-29T07:07:19.091Z,3.54
2018-11-29T07:09:46.753Z,3.59
2018-11-29T07:12:14.858Z,3.62
2018-11-29T07:14:42.486Z,3.59
2018-11-29T07:17:10.079Z,3.68
2018-11-29T07:19:37.583Z,3.69
2018-11-29T07:22:05.396Z,3.69
2018-11-29T07:24:33.029Z,3.82
2018-11-29T07:27:00.626Z,3.87
2018-11-29T07:29:28.218Z,3.96
2018-11-29T07:31:55.806Z,3.92
2018-11-29T07:34:23.339Z,3.91
2018-11-29T07:36:50.897Z,3.89
2018-11-29T07:39:18.490Z,3.98
2018-11-29T07:41:46.746Z,4.01
2018-11-29T07:44:14.491Z,4.06
2018-11-29T07:46:42.073Z,4.18
2018-11-29T07:49:09.629Z,4.14
2018-11-29T07:51:37.327Z,4.22
2018-11-29T07:54:04.992Z,4.29
2018-11-29T07:56:32.655Z,4.36
2018-11-29T07:59:00.333Z,4.37
2018-11-29T08:01:27.974Z,4.45
2018-11-29T08:03:55.532Z,4.57
2018-11-29T08:06:23.089Z,4.75
2018-11-29T08:08:50.645Z,4.87
2018-11-29T08:11:18.310Z,4.92
2018-11-29T08:13:45.870Z,4.98
2018-11-29T08:16:13.533Z,5.12
2018-11-29T08:18:41.315Z,5.32
2018-11-29T08:21:09.025Z,5.56
2018-11-29T08:23:36.610Z,5.64
2018-11-29T08:26:04.279Z,5.64
2018-11-29T08:28:31.823Z,5.78
2018-11-29T08:30:59.389Z,6.02
2018-11-29T08:33:26.952Z,6.19
2018-11-29T08:35:54.522Z,6.29
2018-11-29T08:38:22.085Z,6.36
2018-11-29T08:40:49.618Z,6.50
2018-11-29T08:43:17.190Z,6.52
2018-11-29T08:45:44.954Z,6.67
2018-11-29T08:48:12.598Z,6.63
2018-11-29T08:50:40.200Z,6.56
2018-11-29T08:53:07.732Z,6.65
2018-11-29T08:55:35.304Z,6.69
2018-11-29T08:58:02.829Z,6.74
2018-11-29T09:00:30.617Z,6.72
2018-11-29T09:02:58.165Z,6.76
2018-11-29T09:05:25.991Z,6.86
2018-11-29T09:07:53.551Z,6.99
2018-11-29T09:10:21.881Z,6.92
2018-11-29T09:12:49.460Z,6.95
2018-11-29T09:15:17.486Z,7.02
2018-11-29T09:17:45.089Z,7.20
2018-11-29T09:20:14.296Z,7.29
2018-11-29T09:22:41.911Z,7.29
2018-11-29T09:25:10.232Z,7.29
2018-11-29T09:27:37.864Z,7.25
2018-11-29T09:30:12.596Z,7.41
2018-11-29T09:32:40.346Z,7.68
2018-11-29T09:35:08.049Z,7.73
2018-11-29T09:37:35.762Z,7.91
2018-11-29T09:40:03.383Z,7.88
2018-11-29T09:42:31.016Z,8.04
2018-11-29T09:44:58.543Z,8.17
2018-11-29T09:47:26.235Z,8.20
2018-11-29T09:49:53.866Z,8.27
2018-11-29T09:52:21.452Z,8.42
2018-11-29T09:54:49.111Z,8.67
2018-11-29T09:57:16.735Z,8.62
2018-11-29T09:59:44.299Z,8.92
2018-11-29T10:02:11.802Z,9.15
2018-11-29T10:04:39.353Z,9.25
2018-11-29T10:07:06.888Z,9.46
2018-11-29T10:09:34.460Z,9.57
2018-11-29T10:12:01.958Z,9.78
2018-11-29T10:14:29.606Z,10.02
2018-11-29T10:16:57.289Z,10.19
2018-11-29T10:19:24.797Z,10.38
2018-11-29T10:21:52.380Z,10.40
2018-11-29T10:24:20.019Z,10.58
2018-11-29T10:26:47.581Z,10.57
2018-11-29T10:29:15.148Z,10.60
2018-11-29T10:31:42.719Z,10.58
2018-11-29T10:34:10.461Z,10.64
2018-11-29T10:36:38.021Z,10.68
2018-11-29T10:39:07.064Z,10.62
2018-11-29T10:41:34.698Z,10.62
2018-11-29T10:44:02.336Z,10.71
2018-11-29T10:46:29.858Z,10.65
2018-11-29T10:48:57.475Z,10.69
2018-11-29T10:51:25.123Z,10.80
2018-11-29T10:53:52.904Z,10.79
2018-11-29T10:56:20.675Z,11.05
2018-11-29T10:58:48.210Z,10.97
2018-11-29T11:01:21.044Z,11.22
2018-11-29T11:03:48.657Z,11.41
2018-11-29T11:06:16.268Z,11.49
2018-11-29T11:08:43.960Z,11.41
2018-11-29T11:11:11.502Z,11.35
2018-11-29T11:13:39.113Z,11.51
2018-11-29T11:16:06.955Z,11.32
2018-11-29T11:18:34.821Z,11.34
2018-11-29T11:21:02.555Z,11.34
2018-11-29T11:23:30.207Z,11.47
2018-11-29T11:25:57.773Z,11.27
2018-11-29T11:28:25.363Z,11.15
2018-11-29T11:30:52.883Z,11.10
2018-11-29T11:33:20.398Z,11.27
2018-11-29T11:35:48.183Z,11.33
2018-11-29T11:38:15.757Z,11.38
2018-11-29T11:40:43.374Z,11.17
2018-11-29T11:43:10.974Z,11.17
2018-11-29T11:45:38.571Z,11.11
2018-11-29T11:48:06.694Z,11.16
2018-11-29T11:50:34.609Z,11.22
2018-11-29T11:53:02.262Z,11.17
2018-11-29T11:55:30.452Z,11.30
2018-11-29T11:57:57.448Z,11.34
2018-11-29T12:00:29.613Z,11.40
2018-11-29T12:02:57.810Z,11.24
2018-11-29T12:05:25.373Z,11.16
2018-11-29T12:07:52.915Z,11.27
2018-11-29T12:10:20.447Z,11.29
2018-11-29T12:12:48.220Z,11.52
2018-11-29T12:15:15.926Z,11.53
2018-11-29T12:17:44.146Z,11.52
2018-11-29T12:20:12.200Z,11.58
2018-11-29T12:22:39.974Z,11.56
2018-11-29T12:25:08.625Z,11.65
2018-11-29T12:27:36.212Z,11.42
2018-11-29T12:30:04.463Z,11.40
2018-11-29T12:32:32.026Z,11.48
2018-11-29T12:34:59.912Z,11.42
2018-11-29T12:37:27.495Z,11.33
2018-11-29T12:39:55.045Z,11.48
2018-11-29T12:42:22.794Z,11.31
2018-11-29T12:44:50.319Z,11.34
2018-11-29T12:47:17.938Z,11.27
2018-11-29T12:49:45.615Z,11.26
2018-11-29T12:52:13.177Z,11.21
2018-11-29T12:54:40.751Z,11.21
2018-11-29T12:57:08.292Z,11.08
2018-11-29T12:59:36.052Z,11.14
2018-11-29T13:02:03.637Z,11.11
2018-11-29T13:04:32.260Z,11.09
2018-11-29T13:06:58.888Z,11.22
2018-11-29T13:09:26.540Z,11.19
2018-11-29T13:11:54.134Z,11.17
2018-11-29T13:14:21.754Z,11.18
2018-11-29T13:16:49.483Z,11.11
2018-11-29T13:19:17.176Z,11.31
2018-11-29T13:21:44.729Z,11.20
2018-11-29T13:24:12.288Z,11.03
2018-11-29T13:26:39.958Z,10.88
2018-11-29T13:29:07.528Z,10.88
2018-11-29T13:31:35.242Z,10.84
2018-11-29T13:34:02.792Z,10.86
2018-11-29T13:36:30.587Z,10.68
2018-11-29T13:38:58.285Z,10.62
2018-11-29T13:41:26.119Z,10.46
2018-11-29T13:43:53.753Z,10.46
2018-11-29T13:46:21.423Z,10.40
2018-11-29T13:48:48.996Z,10.25
2018-11-29T13:51:16.546Z,10.09
2018-11-29T13:53:44.188Z,10.05
2018-11-29T13:56:11.815Z,10.02
2018-11-29T13:58:39.361Z,9.89
2018-11-29T14:01:06.932Z,9.87
2018-11-29T14:03:34.533Z,9.80
2018-11-29T14:06:02.094Z,9.77
2018-11-29T14:08:29.650Z,9.81
2018-11-29T14:10:57.320Z,9.74
2018-11-29T14:13:24.837Z,9.63
2018-11-29T14:15:52.381Z,9.64
2018-11-29T14:18:20.043Z,9.59
2018-11-29T14:20:47.654Z,9.43
2018-11-29T14:23:15.227Z,9.48
2018-11-29T14:25:43.103Z,9.53
2018-11-29T14:28:10.628Z,9.42
2018-11-29T14:30:38.851Z,9.44
2018-11-29T14:33:06.725Z,9.37
2018-11-29T14:35:34.459Z,9.35
2018-11-29T14:38:02.107Z,9.26
2018-11-29T14:40:31.026Z,9.12
2018-11-29T14:42:58.651Z,9.14
2018-11-29T14:45:26.699Z,9.07
2018-11-29T14:47:54.566Z,8.94
2018-11-29T14:50:25.673Z,8.95
2018-11-29T14:52:53.257Z,8.94
2018-11-29T14:55:21.804Z,8.93
2018-11-29T14:57:48.460Z,8.90
2018-11-29T15:00:16.097Z,8.85
2018-11-29T15:02:43.698Z,8.77
2018-11-29T15:05:15.331Z,8.74
2018-11-29T15:07:42.965Z,8.69
2018-11-29T15:10:10.540Z,8.63
2018-11-29T15:12:38.207Z,8.60
2018-11-29T15:15:06.977Z,8.46
2018-11-29T15:17:34.588Z,8.43
2018-11-29T15:20:02.214Z,8.41
2018-11-29T15:22:29.867Z,8.41
2018-11-29T15:24:57.483Z,8.40
2018-11-29T15:27:25.170Z,8.29
2018-11-29T15:29:52.764Z,8.19
2018-11-29T15:32:20.404Z,8.14
2018-11-29T15:34:48.021Z,8.19
2018-11-29T15:37:15.554Z,8.12
2018-11-29T15:39:43.248Z,8.11
2018-11-29T15:42:10.841Z,8.09
2018-11-29T15:44:38.369Z,7.96
2018-11-29T15:47:05.985Z,7.94
2018-11-29T15:49:33.647Z,7.97
2018-11-29T15:52:01.182Z,7.95
2018-11-29T15:54:28.874Z,7.93
2018-11-29T15:56:56.389Z,7.91
2018-11-29T15:59:23.963Z,7.95
2018-11-29T16:01:51.522Z,7.86
2018-11-29T16:04:19.181Z,7.81
2018-11-29T16:06:46.757Z,7.91
2018-11-29T16:09:14.422Z,7.91
2018-11-29T16:11:42.009Z,7.87
2018-11-29T16:14:09.537Z,7.96
2018-11-29T16:16:37.069Z,7.93
2018-11-29T16:19:04.636Z,7.97
2018-11-29T16:21:32.209Z,7.99
2018-11-29T16:23:59.880Z,8.02
2018-11-29T16:26:27.587Z,7.97
2018-11-29T16:28:55.198Z,7.97
2018-11-29T16:31:22.864Z,8.00
2018-11-29T16:36:24.447Z,7.95
2018-11-29T16:38:52.468Z,7.97
2018-11-29T16:41:20.154Z,7.95
2018-11-29T16:43:47.670Z,7.78
2018-11-29T16:46:15.304Z,7.94
2018-11-29T16:48:42.831Z,7.93
2018-11-29T16:51:10.385Z,7.94
2018-11-29T16:53:37.993Z,7.98
2018-11-29T16:56:05.605Z,7.98
2018-11-29T16:58:33.151Z,7.98
2018-11-29T17:01:00.779Z,8.02
2018-11-29T17:03:28.505Z,8.04
2018-11-29T17:05:56.059Z,8.02
2018-11-29T17:08:23.608Z,8.03
2018-11-29T17:10:51.755Z,7.96
2018-11-29T17:13:19.537Z,8.00
2018-11-29T17:15:47.129Z,7.95
2018-11-29T17:18:14.740Z,7.93
2018-11-29T17:20:42.313Z,7.87
2018-11-29T17:23:10.363Z,7.87
2018-11-29T17:25:37.919Z,7.84
2018-11-29T17:28:05.985Z,7.83
2018-11-29T17:33:08.246Z,7.78
2018-11-29T17:35:36.280Z,7.68
2018-11-29T17:38:04.010Z,7.63
2018-11-29T17:40:31.716Z,7.55
2018-11-29T17:42:59.337Z,7.47
2018-11-29T17:45:27.643Z,7.32
2018-11-29T17:47:57.839Z,7.20
2018-11-29T17:50:29.289Z,7.19
2018-11-29T17:52:56.936Z,7.08
2018-11-29T17:55:24.591Z,7.00
2018-11-29T17:57:52.174Z,6.95
2018-11-29T18:00:21.489Z,6.91
2018-11-29T18:02:49.208Z,6.72
2018-11-29T18:05:17.044Z,6.83
2018-11-29T18:07:44.636Z,6.79
2018-11-29T18:10:15.113Z,6.82
2018-11-29T18:12:43.139Z,6.77
2018-11-29T18:15:12.065Z,6.66
2018-11-29T18:17:39.656Z,6.54
2018-11-29T18:20:08.087Z,6.69
2018-11-29T18:22:35.824Z,6.61
2018-11-29T18:25:03.375Z,6.56
2018-11-29T18:27:30.941Z,6.55
2018-11-29T18:29:58.529Z,6.60
2018-11-29T18:32:26.063Z,6.56
2018-11-29T18:34:53.708Z,6.59
2018-11-29T18:37:21.304Z,6.51
2018-11-29T18:39:48.794Z,6.43
2018-11-29T18:42:16.333Z,6.47
2018-11-29T18:44:43.903Z,6.41
2018-11-29T18:47:14.270Z,6.47
2018-11-29T18:49:41.944Z,6.46
2018-11-29T18:52:09.774Z,6.44
2018-11-29T18:54:37.512Z,6.42
2018-11-29T18:57:05.354Z,6.40
2018-11-29T18:59:33.010Z,6.42
2018-11-29T19:02:00.699Z,6.39
2018-11-29T19:04:28.294Z,6.36
2018-11-29T19:06:55.975Z,6.29
2018-11-29T19:09:23.672Z,6.24
2018-11-29T19:11:51.317Z,6.23
2018-11-29T19:14:18.976Z,6.18
2018-11-29T19:16:46.515Z,6.11
2018-11-29T19:19:14.310Z,6.13
2018-11-29T19:21:41.842Z,6.14
2018-11-29T19:24:09.454Z,6.09
2018-11-29T19:26:37.065Z,6.10
2018-11-29T19:29:05.140Z,6.02
2018-11-29T19:31:32.824Z,5.98
2018-11-29T19:34:01.554Z,5.98
2018-11-29T19:36:27.960Z,6.00
2018-11-29T19:38:55.639Z,5.95
2018-11-29T19:41:23.236Z,5.98
2018-11-29T19:43:50.936Z,5.87
2018-11-29T19:46:18.617Z,5.90
2018-11-29T19:48:46.228Z,5.87
2018-11-29T19:51:13.893Z,5.87
2018-11-29T19:53:41.556Z,5.86
2018-11-29T19:56:09.266Z,5.89
2018-11-29T19:58:36.796Z,5.86
2018-11-29T20:01:04.526Z,5.94
2018-11-29T20:03:32.007Z,5.91
2018-11-29T20:05:59.587Z,5.86
2018-11-29T20:08:27.155Z,5.90
2018-11-29T20:10:54.650Z,5.85
2018-11-29T20:13:22.260Z,5.88
2018-11-29T20:15:50.701Z,5.89
2018-11-29T20:18:18.252Z,5.86
2018-11-29T20:20:45.757Z,5.84
2018-11-29T20:23:13.394Z,5.84
2018-11-29T20:25:41.870Z,5.72
2018-11-29T20:28:09.442Z,5.74
2018-11-29T20:30:37.087Z,5.64
2018-11-29T20:33:05.550Z,5.64
2018-11-29T20:35:33.074Z,5.62
2018-11-29T20:38:00.716Z,5.65
2018-11-29T20:40:31.483Z,5.61
2018-11-29T20:42:59.723Z,5.61
2018-11-29T20:45:31.129Z,5.60
2018-11-29T20:47:58.731Z,5.63
2018-11-29T20:50:27.006Z,5.61
2018-11-29T20:52:55.284Z,5.61
2018-11-29T20:55:24.507Z,5.64
2018-11-29T20:57:52.186Z,5.61
2018-11-29T21:00:19.965Z,5.58
2018-11-29T21:02:47.553Z,5.58
2018-11-29T21:05:15.809Z,5.55
2018-11-29T21:07:44.631Z,5.49
2018-11-29T21:10:14.202Z,5.44
2018-11-29T21:12:41.973Z,5.40
2018-11-29T21:15:09.497Z,5.43
2018-11-29T21:17:37.088Z,5.38
2018-11-29T21:20:05.641Z,5.32
2018-11-29T21:22:33.197Z,5.20
2018-11-29T21:25:00.985Z,5.21
2018-11-29T21:27:28.649Z,5.17
2018-11-29T21:29:56.273Z,5.18
2018-11-29T21:32:23.873Z,5.18
2018-11-29T21:34:51.495Z,5.19
2018-11-29T21:37:19.091Z,5.15
2018-11-29T21:39:46.864Z,5.10
2018-11-29T21:42:14.400Z,5.11
2018-11-29T21:44:42.133Z,4.90
2018-11-29T21:47:09.782Z,4.95
2018-11-29T21:49:37.335Z,4.99
2018-11-29T21:52:04.973Z,5.01
2018-11-29T21:54:32.529Z,4.99
2018-11-29T21:57:00.200Z,4.90
2018-11-29T21:59:27.887Z,4.89
2018-11-29T22:01:55.422Z,4.89
2018-11-29T22:04:23.329Z,4.79
2018-11-29T22:06:52.644Z,4.87
2018-11-29T22:09:20.246Z,4.85
2018-11-29T22:11:47.909Z,4.85
2018-11-29T22:14:15.593Z,4.81
2018-11-29T22:16:43.257Z,4.78
2018-11-29T22:19:10.800Z,4.72
2018-11-29T22:21:38.393Z,4.72
2018-11-29T22:24:06.041Z,4.72
2018-11-29T22:26:33.592Z,4.59
2018-11-29T22:29:01.155Z,4.58
2018-11-29T22:31:28.681Z,4.60
2018-11-29T22:33:56.447Z,4.64
2018-11-29T22:36:24.024Z,4.57
2018-11-29T22:38:51.588Z,4.52
2018-11-29T22:41:19.254Z,4.57
2018-11-29T22:43:46.893Z,4.57
2018-11-29T22:46:14.478Z,4.52
2018-11-29T22:48:42.173Z,4.49
2018-11-29T22:51:10.061Z,4.47
2018-11-29T22:53:37.666Z,4.45
2018-11-29T22:56:06.699Z,4.44
2018-11-29T22:58:34.330Z,4.39
2018-11-29T23:01:01.922Z,4.30
2018-11-29T23:03:29.738Z,4.37
2018-11-29T23:05:57.320Z,4.33
2018-11-29T23:08:24.997Z,4.33
2018-11-29T23:10:52.719Z,4.27
2018-11-29T23:13:21.558Z,4.35
2018-11-29T23:15:50.680Z,4.41
2018-11-29T23:18:18.210Z,4.31
2018-11-29T23:20:47.105Z,4.35
2018-11-29T23:23:14.660Z,4.36
2018-11-29T23:25:42.973Z,4.37
2018-11-29T23:28:11.597Z,4.31
2018-11-29T23:30:39.206Z,4.33
2018-11-29T23:33:06.856Z,4.32
2018-11-29T23:35:34.405Z,4.30
2018-11-29T23:38:01.945Z,4.33
2018-11-29T23:40:29.502Z,4.25
2018-11-29T23:42:57.165Z,4.29
2018-11-29T23:45:24.896Z,4.21
2018-11-29T23:47:52.477Z,4.20
2018-11-29T23:50:20.061Z,4.28
2018-11-29T23:52:47.620Z,4.30
2018-11-29T23:55:15.831Z,4.29
2018-11-29T23:57:43.360Z,4.25
